Time;durP1;ratioP1;P1;durP2;ratioP2;P2;SDS_P1;SDS_P2;PMS_P1;PMS_P2;Temp;Humidity;BMP_temperature;BMP_pressure;BME280_temperature;BME280_humidity;BME280_pressure;Samples;Min_cycle;Max_cycle;Signal;HPM_P1;HPM_P2
2021/01/26 00:02:10;;;;;;;10.47;4.70;;;;;;;1.84;100.00;97853.41;5045751;28;20206;-72
2021/01/26 00:04:37;;;;;;;9.80;5.40;;;;;;;1.81;100.00;97858.97;5052002;28;20217;-73
2021/01/26 00:07:05;;;;;;;9.47;5.30;;;;;;;1.84;100.00;97848.97;5051586;28;20202;-73
2021/01/26 00:09:32;;;;;;;12.00;5.43;;;;;;;1.86;100.00;97844.41;5051177;28;20225;-73
2021/01/26 00:11:59;;;;;;;8.33;4.97;;;;;;;1.95;100.00;97847.91;5048206;28;20671;-74
2021/01/26 00:14:25;;;;;;;7.77;5.03;;;;;;;1.92;100.00;97846.41;5047992;28;20197;-73
2021/01/26 00:16:52;;;;;;;8.90;4.83;;;;;;;1.89;100.00;97849.34;5051253;28;20205;-73
2021/01/26 00:19:19;;;;;;;9.50;5.27;;;;;;;1.82;100.00;97853.56;5049770;28;20243;-73
2021/01/26 00:21:46;;;;;;;12.30;5.63;;;;;;;1.77;100.00;97847.91;5049231;28;20208;-73
2021/01/26 00:24:13;;;;;;;12.20;5.53;;;;;;;1.77;100.00;97852.34;5043984;28;20229;-73
2021/01/26 00:26:40;;;;;;;9.50;5.00;;;;;;;1.78;100.00;97849.56;5046452;28;20202;-74
2021/01/26 00:29:08;;;;;;;12.80;5.77;;;;;;;1.73;100.00;97849.19;5050963;28;20225;-73
2021/01/26 00:31:35;;;;;;;11.07;5.97;;;;;;;1.82;100.00;97850.09;5046160;28;20213;-73
2021/01/26 00:34:02;;;;;;;11.43;5.90;;;;;;;1.76;100.00;97858.59;5046018;28;20201;-73
2021/01/26 00:36:29;;;;;;;11.30;5.80;;;;;;;1.70;100.00;97860.03;5048389;28;20209;-73
2021/01/26 00:38:56;;;;;;;9.40;5.53;;;;;;;1.65;100.00;97864.91;5050249;28;20213;-72
2021/01/26 00:41:24;;;;;;;9.40;4.63;;;;;;;1.59;100.00;97854.16;5049361;28;20577;-72
2021/01/26 00:43:51;;;;;;;8.03;4.60;;;;;;;1.55;100.00;97864.16;5050919;28;20226;-73
2021/01/26 00:46:17;;;;;;;8.43;4.87;;;;;;;1.52;100.00;97861.81;5048306;28;20567;-74
2021/01/26 00:48:44;;;;;;;8.27;5.07;;;;;;;1.48;100.00;97860.44;5051946;28;20689;-72
2021/01/26 00:51:11;;;;;;;9.73;4.83;;;;;;;1.36;100.00;97859.00;5047520;28;20216;-73
2021/01/26 00:53:38;;;;;;;8.63;4.80;;;;;;;1.36;100.00;97863.41;5052318;28;20209;-74
2021/01/26 00:56:05;;;;;;;9.83;5.43;;;;;;;1.33;100.00;97872.44;5048690;28;20213;-73
2021/01/26 00:58:33;;;;;;;11.53;5.40;;;;;;;1.32;100.00;97868.16;5050729;28;20209;-74
2021/01/26 01:00:59;;;;;;;8.80;5.40;;;;;;;1.31;100.00;97874.38;5046765;28;20217;-73
2021/01/26 01:03:26;;;;;;;9.90;5.07;;;;;;;1.28;100.00;97876.50;5049837;28;20229;-74
2021/01/26 01:05:53;;;;;;;9.67;5.30;;;;;;;1.23;100.00;97874.28;5053579;28;20638;-71
2021/01/26 01:08:20;;;;;;;8.27;4.70;;;;;;;1.07;100.00;97868.84;5048039;28;20210;-73
2021/01/26 01:10:47;;;;;;;7.60;4.27;;;;;;;1.17;100.00;97871.44;5050846;28;20225;-74
2021/01/26 01:13:13;;;;;;;8.33;4.77;;;;;;;1.14;100.00;97876.97;5051320;28;20201;-73
2021/01/26 01:15:41;;;;;;;9.77;4.97;;;;;;;1.19;100.00;97872.94;5049087;28;20210;-74
2021/01/26 01:18:09;;;;;;;7.70;4.03;;;;;;;1.19;100.00;97880.00;5050556;28;20208;-73
2021/01/26 01:20:36;;;;;;;7.27;4.10;;;;;;;1.30;100.00;97879.78;5047738;28;20241;-72
2021/01/26 01:23:03;;;;;;;8.13;4.80;;;;;;;1.38;100.00;97880.69;5048121;28;20204;-73
2021/01/26 01:25:30;;;;;;;7.10;3.87;;;;;;;1.40;100.00;97884.03;5046111;28;20208;-73
2021/01/26 01:27:57;;;;;;;9.43;4.47;;;;;;;1.39;100.00;97889.44;5048885;28;20213;-73
2021/01/26 01:30:27;;;;;;;7.17;3.90;;;;;;;1.42;100.00;97891.78;5045074;28;20275;-72
2021/01/26 01:32:55;;;;;;;6.97;3.80;;;;;;;1.34;100.00;97896.94;5050509;28;20211;-73
2021/01/26 01:35:22;;;;;;;10.43;4.60;;;;;;;1.35;100.00;97906.47;5045144;28;20201;-74
2021/01/26 01:37:50;;;;;;;9.30;4.13;;;;;;;1.33;100.00;97911.84;5049741;28;20225;-74
2021/01/26 01:40:19;;;;;;;6.90;3.80;;;;;;;1.16;100.00;97920.53;5049166;28;20229;-74
2021/01/26 01:42:48;;;;;;;7.70;4.00;;;;;;;1.18;100.00;97917.75;5048219;28;20206;-73
2021/01/26 01:45:16;;;;;;;7.57;4.20;;;;;;;1.21;100.00;97920.06;5046851;28;20229;-74
2021/01/26 01:47:46;;;;;;;7.23;3.73;;;;;;;1.21;100.00;97922.72;5049481;28;20217;-73
2021/01/26 01:50:20;;;;;;;7.57;3.63;;;;;;;1.23;100.00;97918.97;5049626;28;21728;-73
2021/01/26 01:52:51;;;;;;;8.00;4.20;;;;;;;1.24;100.00;97917.16;5048306;28;20209;-71
2021/01/26 01:55:21;;;;;;;6.60;4.00;;;;;;;1.24;100.00;97917.16;5049528;28;20211;-72
2021/01/26 01:57:51;;;;;;;7.37;4.00;;;;;;;1.30;100.00;97924.47;5049208;28;20236;-72
2021/01/26 02:00:20;;;;;;;8.03;4.23;;;;;;;1.29;100.00;97926.28;5049563;28;20225;-72
2021/01/26 02:02:51;;;;;;;7.87;3.73;;;;;;;1.41;100.00;97935.63;5047787;28;20589;-71
2021/01/26 02:05:19;;;;;;;7.23;3.67;;;;;;;1.35;100.00;97938.00;5047475;28;20198;-74
2021/01/26 02:07:46;;;;;;;6.83;3.77;;;;;;;1.35;100.00;97945.91;5050191;28;20213;-71
2021/01/26 02:10:13;;;;;;;6.53;3.60;;;;;;;1.37;100.00;97947.41;5046991;28;20237;-72
2021/01/26 02:12:40;;;;;;;8.17;3.63;;;;;;;1.38;100.00;97946.41;5046361;28;20214;-72
2021/01/26 02:15:08;;;;;;;7.20;3.83;;;;;;;1.48;100.00;97955.09;5048732;28;20209;-73
2021/01/26 02:17:47;;;;;;;6.43;3.40;;;;;;;1.54;100.00;97946.63;5053292;28;20201;-73
2021/01/26 02:21:02;;;;;;;9.10;4.37;;;;;;;1.52;100.00;97953.84;5045195;28;20777;-71
2021/01/26 02:24:03;;;;;;;7.97;4.40;;;;;;;1.44;100.00;97964.28;5040390;28;20233;-72
2021/01/26 02:27:08;;;;;;;6.93;4.47;;;;;;;1.43;100.00;97962.59;5045454;28;20561;-73
2021/01/26 02:29:53;;;;;;;8.07;4.10;;;;;;;1.41;100.00;97969.81;5048934;28;20544;-73
2021/01/26 02:32:25;;;;;;;8.37;3.93;;;;;;;1.57;100.00;97966.53;5048277;28;20662;-72
2021/01/26 02:35:20;;;;;;;9.03;4.10;;;;;;;1.49;100.00;97963.81;5048527;28;20254;-72
2021/01/26 02:38:33;;;;;;;7.70;4.33;;;;;;;1.59;100.00;97970.66;5042269;28;20222;-72
2021/01/26 02:41:06;;;;;;;7.43;3.60;;;;;;;1.75;100.00;97965.63;5009104;28;20780;-73
2021/01/26 02:43:55;;;;;;;10.70;4.47;;;;;;;1.65;100.00;97970.09;5049654;28;20390;-72
2021/01/26 02:46:40;;;;;;;8.33;3.83;;;;;;;1.70;100.00;97959.97;5045652;28;20340;-72
2021/01/26 02:49:15;;;;;;;8.90;4.33;;;;;;;1.74;100.00;97968.41;5045782;28;20287;-73
2021/01/26 02:51:49;;;;;;;10.07;4.80;;;;;;;1.68;100.00;97963.72;5047917;28;20666;-73
2021/01/26 02:54:21;;;;;;;7.67;3.90;;;;;;;1.74;100.00;97968.41;5045781;28;20209;-72
2021/01/26 02:56:55;;;;;;;8.77;4.17;;;;;;;1.65;100.00;97971.91;5046223;28;20213;-72
2021/01/26 02:59:29;;;;;;;6.77;4.27;;;;;;;1.70;100.00;97974.91;5052916;28;20306;-72
2021/01/26 03:01:58;;;;;;;7.73;4.00;;;;;;;1.81;100.00;97985.25;5052054;28;20224;-73
2021/01/26 03:04:31;;;;;;;8.20;4.17;;;;;;;1.83;100.00;97986.75;5053319;28;20217;-73
2021/01/26 03:06:59;;;;;;;7.07;3.97;;;;;;;1.76;100.00;97982.22;5051786;28;20623;-73
2021/01/26 03:09:29;;;;;;;10.03;4.40;;;;;;;1.61;100.00;97975.78;5047632;28;20222;-73
2021/01/26 03:12:01;;;;;;;8.13;4.13;;;;;;;1.60;100.00;97969.72;5051788;28;20662;-72
2021/01/26 03:14:34;;;;;;;9.90;4.70;;;;;;;1.53;100.00;97971.25;5052969;28;20208;-74
2021/01/26 03:17:05;;;;;;;8.80;4.03;;;;;;;1.52;100.00;97974.03;5049284;28;20623;-72
2021/01/26 03:19:34;;;;;;;8.60;4.30;;;;;;;1.55;100.00;97966.69;5053073;28;20323;-72
2021/01/26 03:22:01;;;;;;;12.33;4.53;;;;;;;1.41;100.00;97964.53;5043153;28;20292;-72
2021/01/26 03:24:32;;;;;;;8.73;4.63;;;;;;;1.38;100.00;97959.56;5053364;28;20283;-72
2021/01/26 03:27:00;;;;;;;7.07;3.87;;;;;;;1.39;100.00;97963.03;5050822;28;20285;-72
2021/01/26 03:29:30;;;;;;;8.17;4.27;;;;;;;1.28;100.00;97956.16;5053300;28;20249;-72
2021/01/26 03:32:00;;;;;;;9.67;4.53;;;;;;;1.38;100.00;97958.75;5054702;28;20241;-73
2021/01/26 03:34:27;;;;;;;8.67;4.50;;;;;;;1.44;100.00;97951.13;5047497;28;20194;-73
2021/01/26 03:36:54;;;;;;;10.97;3.93;;;;;;;1.37;100.00;97957.09;5052507;28;20209;-72
2021/01/26 03:39:21;;;;;;;6.77;3.77;;;;;;;1.42;100.00;97946.97;5052470;28;20259;-72
2021/01/26 03:41:48;;;;;;;6.30;3.50;;;;;;;1.32;100.00;97940.94;5047074;28;20202;-72
2021/01/26 03:44:16;;;;;;;10.07;4.27;;;;;;;1.51;100.00;97951.34;5048210;28;20288;-73
2021/01/26 03:47:00;;;;;;;6.00;3.70;;;;;;;1.45;100.00;97952.78;5048091;28;20202;-73
2021/01/26 03:49:37;;;;;;;6.67;4.20;;;;;;;1.54;100.00;97961.59;5053736;28;20732;-74
2021/01/26 03:52:15;;;;;;;7.07;3.80;;;;;;;1.48;100.00;97951.66;5047572;28;20384;-74
2021/01/26 03:54:45;;;;;;;6.80;3.50;;;;;;;1.51;100.00;97960.06;5052212;28;20210;-73
2021/01/26 03:57:32;;;;;;;11.93;4.60;;;;;;;1.52;100.00;97953.84;5046057;28;20210;-73
2021/01/26 04:00:13;;;;;;;10.83;3.87;;;;;;;1.66;100.00;97953.34;5050728;28;20225;-74
2021/01/26 04:02:58;;;;;;;11.63;5.33;;;;;;;1.60;100.00;97951.31;5051080;28;20236;-74
2021/01/26 04:05:30;;;;;;;10.27;4.90;;;;;;;1.62;100.00;97953.78;5043973;28;20234;-72
2021/01/26 04:08:01;;;;;;;7.03;4.10;;;;;;;1.42;100.00;97955.69;5052278;28;20225;-73
2021/01/26 04:10:30;;;;;;;11.57;5.03;;;;;;;1.41;100.00;97947.94;5051006;28;20256;-73
2021/01/26 04:12:59;;;;;;;6.30;3.80;;;;;;;1.42;100.00;97942.53;5051549;28;20343;-73
2021/01/26 04:15:30;;;;;;;9.03;4.30;;;;;;;1.46;100.00;97943.91;5046059;28;20206;-73
2021/01/26 04:17:57;;;;;;;7.10;4.10;;;;;;;1.37;100.00;97947.41;5048883;28;20210;-74
2021/01/26 04:20:25;;;;;;;7.03;4.17;;;;;;;1.56;100.00;97939.44;5049395;28;20234;-72
2021/01/26 04:22:54;;;;;;;8.00;3.63;;;;;;;1.64;100.00;97936.88;5052361;28;20227;-73
2021/01/26 04:25:30;;;;;;;8.10;3.57;;;;;;;1.58;100.00;97947.19;5049063;28;20272;-73
2021/01/26 04:27:57;;;;;;;8.80;3.97;;;;;;;1.74;100.00;97952.63;5052038;28;20609;-73
2021/01/26 04:30:24;;;;;;;7.67;3.87;;;;;;;1.72;100.00;97951.91;5051481;28;20717;-73
2021/01/26 04:33:01;;;;;;;6.83;3.80;;;;;;;1.84;100.00;97945.50;5050997;28;20617;-73
2021/01/26 04:35:27;;;;;;;8.27;3.30;;;;;;;1.80;100.00;97955.50;5050993;28;20205;-72
2021/01/26 04:37:55;;;;;;;6.83;3.80;;;;;;;1.94;100.00;97946.25;5050341;28;20213;-73
2021/01/26 04:40:23;;;;;;;5.83;3.60;;;;;;;1.79;100.00;97940.66;5050083;28;20590;-74
2021/01/26 04:42:51;;;;;;;7.53;3.23;;;;;;;1.88;100.00;97946.84;5051609;28;20206;-73
2021/01/26 04:45:23;;;;;;;8.43;4.17;;;;;;;1.95;100.00;97935.59;5052409;28;20221;-72
2021/01/26 04:47:55;;;;;;;7.70;3.53;;;;;;;1.90;100.00;97942.25;5052135;28;20216;-72
2021/01/26 04:50:30;;;;;;;5.13;3.03;;;;;;;2.00;100.00;97946.50;5050941;28;20283;-73
2021/01/26 04:53:31;;;;;;;6.23;3.80;;;;;;;2.06;100.00;97942.41;5050997;28;20217;-73
2021/01/26 04:56:04;;;;;;;4.93;2.80;;;;;;;1.99;100.00;97936.13;5046976;28;20213;-73
2021/01/26 04:58:51;;;;;;;9.27;3.73;;;;;;;2.03;100.00;97942.72;5050804;28;20220;-73
2021/01/26 05:01:27;;;;;;;6.90;3.50;;;;;;;2.08;100.00;97953.66;5046899;28;20699;-72
2021/01/26 05:04:00;;;;;;;5.33;2.57;;;;;;;2.03;100.00;97961.97;5049661;28;20232;-72
2021/01/26 05:06:32;;;;;;;6.67;3.57;;;;;;;2.24;100.00;97959.88;5047324;28;20205;-73
2021/01/26 05:09:01;;;;;;;4.87;2.53;;;;;;;2.09;100.00;97964.00;5050264;28;20205;-72
2021/01/26 05:11:31;;;;;;;8.10;3.07;;;;;;;2.18;100.00;97960.47;5048980;28;20570;-73
2021/01/26 05:14:00;;;;;;;8.07;3.77;;;;;;;2.14;100.00;97961.75;5048598;28;20197;-72
2021/01/26 05:16:31;;;;;;;5.27;2.63;;;;;;;2.16;100.00;97972.97;5043594;28;20213;-73
2021/01/26 05:19:01;;;;;;;4.43;2.50;;;;;;;2.15;100.00;97966.06;5049626;28;20693;-72
2021/01/26 05:21:33;;;;;;;6.97;3.10;;;;;;;2.24;100.00;97970.41;5040945;28;20213;-73
2021/01/26 05:24:05;;;;;;;6.90;3.00;;;;;;;2.20;100.00;97984.81;5047704;28;20229;-73
2021/01/26 05:26:32;;;;;;;5.00;2.70;;;;;;;2.16;100.00;97994.03;5046751;28;20197;-72
2021/01/26 05:28:59;;;;;;;5.97;3.20;;;;;;;2.20;100.00;97986.66;5050562;28;20581;-73
2021/01/26 05:31:28;;;;;;;5.43;2.93;;;;;;;2.21;100.00;97978.63;5045914;28;20208;-72
2021/01/26 05:34:00;;;;;;;7.27;3.27;;;;;;;2.24;100.00;97977.50;5051132;28;20568;-73
2021/01/26 05:36:26;;;;;;;6.07;3.17;;;;;;;2.24;100.00;97983.56;5051785;28;20670;-71
2021/01/26 05:38:54;;;;;;;5.43;2.70;;;;;;;2.27;100.00;97983.28;5050343;28;20267;-71
2021/01/26 05:41:22;;;;;;;6.47;3.17;;;;;;;2.21;100.00;97989.16;5050810;28;20204;-71
2021/01/26 05:43:51;;;;;;;6.80;2.80;;;;;;;2.20;100.00;97994.56;5048711;28;20232;-71
2021/01/26 05:46:36;;;;;;;6.63;3.00;;;;;;;2.18;100.00;97980.72;5046975;28;20202;-72
2021/01/26 05:49:03;;;;;;;5.40;2.80;;;;;;;2.12;100.00;97974.25;5044671;28;20205;-71
2021/01/26 05:51:30;;;;;;;5.00;3.40;;;;;;;2.28;100.00;97978.81;5044611;28;20201;-72
2021/01/26 05:54:00;;;;;;;7.20;2.97;;;;;;;2.33;100.00;97974.75;5050394;28;20708;-72
2021/01/26 05:56:30;;;;;;;4.37;2.23;;;;;;;2.14;100.00;97982.81;5045317;28;20201;-71
2021/01/26 05:58:57;;;;;;;7.30;3.00;;;;;;;2.22;100.00;97976.78;5050417;28;20206;-71
2021/01/26 06:01:33;;;;;;;4.00;2.53;;;;;;;2.25;100.00;97971.25;5051675;28;20198;-71
2021/01/26 06:04:11;;;;;;;4.30;2.30;;;;;;;2.36;100.00;97987.66;5043190;28;20585;-71
2021/01/26 06:06:49;;;;;;;4.60;1.83;;;;;;;2.28;100.00;97984.09;5044603;28;20209;-72
2021/01/26 06:09:33;;;;;;;5.07;2.07;;;;;;;2.30;100.00;97982.16;5048851;28;20226;-71
2021/01/26 06:12:09;;;;;;;3.10;1.93;;;;;;;2.41;100.00;97992.44;5051201;28;20658;-71
2021/01/26 06:14:36;;;;;;;3.70;2.00;;;;;;;2.37;100.00;98001.63;5048549;28;20210;-71
2021/01/26 06:17:11;;;;;;;3.87;1.80;;;;;;;2.49;100.00;98003.88;5041222;28;20577;-72
2021/01/26 06:19:39;;;;;;;3.20;1.70;;;;;;;2.44;100.00;98010.59;5041533;28;20318;-72
2021/01/26 06:22:05;;;;;;;4.17;2.10;;;;;;;2.53;100.00;98010.50;5043424;28;20205;-72
2021/01/26 06:24:36;;;;;;;4.20;1.60;;;;;;;2.41;100.00;98014.34;5050559;28;20694;-71
2021/01/26 06:27:26;;;;;;;3.77;2.00;;;;;;;2.58;100.00;98015.31;5047923;28;20736;-72
2021/01/26 06:30:08;;;;;;;2.63;1.50;;;;;;;2.57;100.00;98011.03;5051011;28;20225;-71
2021/01/26 06:32:44;;;;;;;3.20;1.73;;;;;;;2.52;100.00;98010.66;5051905;28;20216;-71
2021/01/26 06:35:15;;;;;;;1.87;1.53;;;;;;;2.43;100.00;98019.44;5050438;28;20205;-71
2021/01/26 06:38:00;;;;;;;3.77;2.13;;;;;;;2.39;100.00;98036.53;5053597;28;20290;-71
2021/01/26 06:40:52;;;;;;;3.77;1.60;;;;;;;2.41;100.00;98022.25;5054778;28;20221;-71
2021/01/26 06:43:33;;;;;;;5.20;2.03;;;;;;;2.56;100.00;98027.81;5052602;28;20210;-71
2021/01/26 06:46:08;;;;;;;3.40;1.60;;;;;;;2.43;100.00;98028.19;5053675;28;20201;-71
2021/01/26 06:48:47;;;;;;;4.30;1.70;;;;;;;2.44;100.00;98026.41;5048114;28;20193;-72
2021/01/26 06:51:29;;;;;;;4.13;1.53;;;;;;;2.42;100.00;98044.13;5053310;28;20205;-70
2021/01/26 06:54:03;;;;;;;3.53;2.07;;;;;;;2.47;100.00;98042.72;5053863;28;20692;-76
2021/01/26 06:56:58;;;;;;;4.23;1.80;;;;;;;2.49;100.00;98047.84;5055122;28;20209;-71
2021/01/26 06:59:52;;;;;;;3.80;2.03;;;;;;;2.41;100.00;98055.66;5032452;28;20221;-70
2021/01/26 07:03:06;;;;;;;2.83;1.53;;;;;;;2.47;100.00;98053.25;5053465;28;20198;-71
2021/01/26 07:06:00;;;;;;;2.83;1.47;;;;;;;2.45;100.00;98059.66;5055228;28;20221;-73
2021/01/26 07:08:46;;;;;;;6.03;1.70;;;;;;;2.56;100.00;98067.31;5054651;28;20208;-72
2021/01/26 07:11:52;;;;;;;3.40;1.87;;;;;;;2.60;100.00;98061.59;5055271;28;20259;-73
2021/01/26 07:14:25;;;;;;;2.70;1.70;;;;;;;2.44;100.00;98073.78;5038019;28;20191;-74
2021/01/26 07:16:54;;;;;;;4.67;1.70;;;;;;;2.55;100.00;98074.38;5047514;28;20681;-73
2021/01/26 07:19:56;;;;;;;3.93;1.43;;;;;;;2.48;100.00;98075.13;5054569;28;20230;-73
2021/01/26 07:23:00;;;;;;;5.13;1.30;;;;;;;2.48;100.00;98083.03;5054157;28;20262;-72
2021/01/26 07:25:30;;;;;;;4.17;1.50;;;;;;;2.44;100.00;98085.13;5049931;28;20222;-75
2021/01/26 07:28:29;;;;;;;7.53;1.30;;;;;;;2.42;100.00;98092.38;5040509;28;20200;-76
2021/01/26 07:30:59;;;;;;;2.90;1.50;;;;;;;2.43;100.00;98088.75;5037074;28;20225;-71
2021/01/26 07:33:30;;;;;;;1.77;1.10;;;;;;;2.45;100.00;98102.59;5053622;28;20206;-71
2021/01/26 07:36:06;;;;;;;4.00;1.50;;;;;;;2.56;100.00;98104.19;5053896;28;20216;-71
2021/01/26 07:38:37;;;;;;;3.07;1.70;;;;;;;2.60;100.00;98103.75;5046353;28;20265;-71
2021/01/26 07:41:06;;;;;;;2.87;1.10;;;;;;;2.57;100.00;98117.22;5052084;28;20214;-70
2021/01/26 07:43:38;;;;;;;5.10;1.47;;;;;;;2.64;100.00;98128.81;5043162;28;20232;-72
2021/01/26 07:46:09;;;;;;;5.40;1.40;;;;;;;2.68;100.00;98127.53;5053857;28;20201;-73
2021/01/26 07:48:42;;;;;;;3.00;1.20;;;;;;;2.74;100.00;98139.31;5053372;28;20643;-74
2021/01/26 07:51:14;;;;;;;3.03;1.40;;;;;;;2.77;100.00;98139.00;5053837;28;20747;-71
2021/01/26 07:53:48;;;;;;;3.17;1.23;;;;;;;2.72;100.00;98142.09;5054441;28;20198;-71
2021/01/26 07:56:20;;;;;;;3.63;1.53;;;;;;;2.83;100.00;98146.28;5054366;28;20186;-75
2021/01/26 07:58:48;;;;;;;7.07;2.00;;;;;;;2.81;100.00;98151.75;5054125;28;20200;-75
2021/01/26 08:01:19;;;;;;;3.97;1.60;;;;;;;3.03;100.00;98148.66;5053973;28;20213;-77
2021/01/26 08:03:46;;;;;;;4.03;1.33;;;;;;;2.91;100.00;98146.38;5054626;28;20252;-75
2021/01/26 08:06:47;;;;;;;3.30;1.50;;;;;;;3.06;100.00;98150.97;5053604;28;20252;-76
2021/01/26 08:09:16;;;;;;;2.87;1.47;;;;;;;3.15;100.00;98150.06;5046882;28;20221;-76
2021/01/26 08:11:58;;;;;;;3.97;1.77;;;;;;;3.06;100.00;98144.88;5033959;28;20660;-75
2021/01/26 08:14:29;;;;;;;2.67;1.30;;;;;;;3.08;100.00;98153.47;5034254;28;20671;-75
2021/01/26 08:16:58;;;;;;;2.77;1.30;;;;;;;3.04;100.00;98160.84;5034433;28;20209;-74
2021/01/26 08:19:27;;;;;;;7.80;1.50;;;;;;;3.11;100.00;98151.34;5038191;28;20243;-75
2021/01/26 08:21:57;;;;;;;7.73;1.97;;;;;;;3.16;100.00;98154.34;5053833;28;20209;-73
2021/01/26 08:24:35;;;;;;;7.40;1.80;;;;;;;2.98;100.00;98163.25;5042983;28;20230;-72
2021/01/26 08:27:35;;;;;;;2.57;1.37;;;;;;;2.95;100.00;98182.00;5047338;28;20203;-70
2021/01/26 08:30:05;;;;;;;4.93;1.33;;;;;;;3.06;100.00;98174.69;5022705;28;20289;-70
2021/01/26 08:32:45;;;;;;;2.20;1.67;;;;;;;2.96;100.00;98183.66;5051004;28;20202;-70
2021/01/26 08:35:13;;;;;;;2.30;1.57;;;;;;;2.97;100.00;98183.53;5049603;28;20204;-70
2021/01/26 08:37:50;;;;;;;3.30;1.67;;;;;;;2.94;100.00;98194.34;5048878;28;20209;-70
2021/01/26 08:40:20;;;;;;;4.87;2.00;;;;;;;2.82;100.00;98203.47;5044167;28;20227;-69
2021/01/26 08:43:01;;;;;;;6.40;1.90;;;;;;;3.00;100.00;98191.13;5049173;28;20248;-71
2021/01/26 08:45:53;;;;;;;5.97;2.53;;;;;;;2.90;100.00;98200.88;5049288;28;20228;-70
2021/01/26 08:48:27;;;;;;;4.73;2.50;;;;;;;3.12;100.00;98191.72;5045027;28;20212;-70
2021/01/26 08:51:06;;;;;;;12.40;2.60;;;;;;;3.04;100.00;98213.56;5042508;28;20312;-70
2021/01/26 08:53:35;;;;;;;6.63;2.60;;;;;;;2.91;100.00;98199.94;5052141;28;20301;-70
2021/01/26 08:56:03;;;;;;;5.53;2.23;;;;;;;2.94;100.00;98196.16;5048012;28;20260;-70
2021/01/26 08:58:39;;;;;;;4.10;2.00;;;;;;;2.86;100.00;98201.34;5046316;28;20202;-70
2021/01/26 09:01:07;;;;;;;3.83;1.73;;;;;;;2.92;100.00;98200.75;5047613;28;20617;-70
2021/01/26 09:03:37;;;;;;;5.93;2.80;;;;;;;3.06;100.00;98198.41;5047633;28;20782;-70
2021/01/26 09:06:07;;;;;;;6.00;2.60;;;;;;;3.01;100.00;98211.22;5040984;28;20289;-69
2021/01/26 09:08:51;;;;;;;5.67;2.53;;;;;;;3.02;100.00;98212.91;5051030;28;20217;-70
2021/01/26 09:11:23;;;;;;;4.77;2.13;;;;;;;3.00;100.00;98219.28;5050526;28;20636;-69
2021/01/26 09:13:50;;;;;;;6.17;1.97;;;;;;;3.01;100.00;98220.94;5051215;28;20213;-69
2021/01/26 09:16:23;;;;;;;8.17;2.33;;;;;;;3.02;100.00;98218.19;5048320;28;20202;-69
2021/01/26 09:18:55;;;;;;;2.90;1.80;;;;;;;3.10;100.00;98226.16;5049782;28;20217;-69
2021/01/26 09:21:21;;;;;;;2.77;1.77;;;;;;;3.10;100.00;98227.97;5045713;28;20210;-69
2021/01/26 09:23:49;;;;;;;3.90;2.20;;;;;;;3.12;100.00;98223.38;5045577;28;20208;-69
2021/01/26 09:26:18;;;;;;;4.37;2.47;;;;;;;3.20;100.00;98226.09;5045845;28;20203;-72
2021/01/26 09:28:47;;;;;;;3.17;1.77;;;;;;;3.34;100.00;98222.91;5051167;28;20677;-69
2021/01/26 09:31:16;;;;;;;6.07;1.97;;;;;;;3.52;100.00;98227.25;5047828;28;20206;-69
2021/01/26 09:33:43;;;;;;;4.43;1.90;;;;;;;3.51;100.00;98222.09;5054131;28;20212;-68
2021/01/26 09:36:13;;;;;;;3.40;1.80;;;;;;;3.51;100.00;98217.63;5051696;28;20272;-69
2021/01/26 09:38:41;;;;;;;7.73;2.50;;;;;;;3.48;100.00;98228.50;5055913;28;20636;-70
2021/01/26 09:41:18;;;;;;;4.53;1.50;;;;;;;3.89;100.00;98235.78;5054776;28;20226;-70
2021/01/26 09:43:46;;;;;;;3.87;1.50;;;;;;;3.90;100.00;98228.66;5050200;28;20221;-69
2021/01/26 09:46:15;;;;;;;3.00;1.30;;;;;;;3.86;100.00;98227.34;5049867;28;20264;-69
2021/01/26 09:48:44;;;;;;;5.63;2.10;;;;;;;3.81;100.00;98229.59;5050555;28;20213;-71
2021/01/26 09:51:19;;;;;;;4.93;1.67;;;;;;;3.58;100.00;98237.19;5050792;28;20206;-70
2021/01/26 09:53:47;;;;;;;5.60;1.53;;;;;;;3.86;100.00;98244.00;5050189;28;20205;-70
2021/01/26 09:56:18;;;;;;;6.23;1.73;;;;;;;3.81;100.00;98248.91;5041607;28;20310;-70
2021/01/26 09:58:45;;;;;;;2.30;1.30;;;;;;;3.88;100.00;98251.75;5048258;28;20233;-71
2021/01/26 10:01:14;;;;;;;4.40;1.73;;;;;;;3.93;100.00;98249.50;5042854;28;20210;-74
2021/01/26 10:03:41;;;;;;;3.30;1.50;;;;;;;3.67;100.00;98244.16;5050480;28;20205;-71
2021/01/26 10:06:08;;;;;;;2.40;1.33;;;;;;;3.82;100.00;98252.38;5044833;28;20221;-70
2021/01/26 10:08:36;;;;;;;5.90;1.60;;;;;;;3.88;100.00;98255.25;5051590;28;20205;-71
2021/01/26 10:11:10;;;;;;;5.57;1.20;;;;;;;3.91;100.00;98244.34;5045839;28;20231;-75
2021/01/26 10:13:39;;;;;;;6.50;1.40;;;;;;;3.74;100.00;98258.41;5051923;28;20294;-71
2021/01/26 10:16:34;;;;;;;3.93;1.40;;;;;;;4.04;100.00;98251.88;5050262;28;20198;-71
2021/01/26 10:19:10;;;;;;;3.47;1.30;;;;;;;4.31;100.00;98260.47;5050450;28;20208;-71
2021/01/26 10:21:36;;;;;;;2.40;1.07;;;;;;;4.61;100.00;98270.56;5050569;28;20689;-70
2021/01/26 10:24:06;;;;;;;2.00;1.20;;;;;;;4.31;100.00;98286.91;5050886;28;20257;-71
2021/01/26 10:26:35;;;;;;;2.23;1.17;;;;;;;4.59;99.88;98264.63;5047802;28;20674;-70
2021/01/26 10:29:18;;;;;;;1.47;1.00;;;;;;;4.33;99.07;98273.53;5043840;28;20211;-69
2021/01/26 10:31:48;;;;;;;1.70;0.93;;;;;;;4.59;95.84;98282.28;5045857;28;20206;-70
2021/01/26 10:34:20;;;;;;;3.23;1.27;;;;;;;4.72;94.50;98277.41;5051125;28;20210;-70
2021/01/26 10:36:46;;;;;;;2.47;1.20;;;;;;;5.04;93.76;98277.53;5050887;28;20208;-70
2021/01/26 10:39:26;;;;;;;2.43;1.40;;;;;;;5.10;94.98;98282.19;5048989;28;20232;-70
2021/01/26 10:42:03;;;;;;;1.80;1.10;;;;;;;5.02;92.44;98282.16;5045285;28;20206;-70
2021/01/26 10:44:30;;;;;;;3.57;1.53;;;;;;;4.53;96.74;98278.44;5048964;28;20435;-70
2021/01/26 10:46:57;;;;;;;1.83;1.10;;;;;;;4.48;96.13;98291.28;5044229;28;20210;-70
2021/01/26 10:49:30;;;;;;;2.50;1.03;;;;;;;4.48;94.95;98290.47;5044886;28;20221;-69
2021/01/26 10:51:58;;;;;;;3.67;1.27;;;;;;;4.26;96.95;98293.66;5047617;28;20213;-70
2021/01/26 10:54:25;;;;;;;3.20;1.10;;;;;;;4.31;96.35;98289.53;5052006;28;20218;-70
2021/01/26 10:56:53;;;;;;;3.57;1.57;;;;;;;4.39;97.91;98289.59;5047330;28;20685;-70
2021/01/26 10:59:21;;;;;;;4.43;1.57;;;;;;;4.39;97.17;98289.59;5048684;28;20676;-70
2021/01/26 11:01:48;;;;;;;2.07;1.10;;;;;;;4.19;97.41;98288.16;5049176;28;20206;-70
2021/01/26 11:04:16;;;;;;;1.67;1.20;;;;;;;4.24;96.81;98292.94;5049783;28;20276;-70
2021/01/26 11:06:43;;;;;;;6.17;1.63;;;;;;;4.29;97.87;98306.53;5046744;28;20427;-70
2021/01/26 11:09:11;;;;;;;2.83;1.10;;;;;;;4.23;96.92;98297.44;5046716;28;20576;-70
2021/01/26 11:11:39;;;;;;;2.10;1.03;;;;;;;4.23;99.52;98301.88;5049910;28;20213;-70
2021/01/26 11:14:07;;;;;;;2.93;1.50;;;;;;;4.16;99.82;98300.84;5054289;28;20660;-73
2021/01/26 11:16:35;;;;;;;3.57;1.20;;;;;;;4.01;100.00;98307.66;5049930;28;20198;-73
2021/01/26 11:19:04;;;;;;;4.10;1.33;;;;;;;4.15;99.52;98302.63;5053112;28;20221;-73
2021/01/26 11:21:31;;;;;;;1.97;1.10;;;;;;;4.19;98.70;98305.78;5049791;28;20207;-75
2021/01/26 11:23:58;;;;;;;2.00;1.00;;;;;;;4.27;96.85;98298.75;5054658;28;20210;-71
2021/01/26 11:26:25;;;;;;;2.97;1.17;;;;;;;4.33;96.82;98298.16;5051823;28;20214;-74
2021/01/26 11:28:53;;;;;;;4.20;0.93;;;;;;;4.39;93.98;98294.91;5052506;28;20214;-76
2021/01/26 11:31:20;;;;;;;3.30;1.70;;;;;;;4.59;91.86;98300.78;5051667;28;20205;-75
2021/01/26 11:33:48;;;;;;;1.93;1.20;;;;;;;4.39;91.74;98286.13;5052510;28;20214;-72
2021/01/26 11:36:15;;;;;;;6.27;1.37;;;;;;;4.39;91.01;98297.53;5053035;28;20206;-71
2021/01/26 11:38:42;;;;;;;4.87;1.23;;;;;;;4.32;90.76;98301.75;5048666;28;20213;-69
2021/01/26 11:41:09;;;;;;;11.37;1.30;;;;;;;4.49;88.22;98303.53;5051401;28;20590;-71
2021/01/26 11:43:36;;;;;;;4.80;1.30;;;;;;;4.70;87.05;98293.41;5050101;28;20207;-69
2021/01/26 11:46:05;;;;;;;7.07;1.30;;;;;;;4.57;84.33;98300.13;5051823;28;20225;-71
2021/01/26 11:48:32;;;;;;;4.40;1.47;;;;;;;4.59;86.08;98309.56;5053088;28;20586;-75
2021/01/26 11:50:59;;;;;;;2.57;1.03;;;;;;;4.54;84.64;98308.34;5052465;28;20230;-70
2021/01/26 11:53:26;;;;;;;2.93;0.90;;;;;;;4.54;82.64;98322.41;5047185;28;20202;-71
2021/01/26 11:55:55;;;;;;;6.37;1.60;;;;;;;4.61;81.83;98315.50;5050488;28;20207;-70
2021/01/26 11:58:22;;;;;;;2.23;1.10;;;;;;;4.32;83.55;98307.03;5049381;28;20746;-70
2021/01/26 12:00:49;;;;;;;4.27;1.27;;;2.70;99.90;;;4.69;80.67;98322.66;5048397;28;20224;-70